sensor_id;sensor_type;location;lat;lon;timestamp;temperature;humidity
38237;DHT22;50101;49.438;11.098;2023-01-30T00:01:38;17.80;53.20
38237;DHT22;50101;49.438;11.098;2023-01-30T00:04:05;17.80;53.10
38237;DHT22;50101;49.438;11.098;2023-01-30T00:06:32;17.80;52.60
38237;DHT22;50101;49.438;11.098;2023-01-30T00:08:59;17.80;53.10
38237;DHT22;50101;49.438;11.098;2023-01-30T00:11:26;17.80;53.10
38237;DHT22;50101;49.438;11.098;2023-01-30T00:13:55;17.80;53.10
38237;DHT22;50101;49.438;11.098;2023-01-30T00:16:22;17.80;53.10
38237;DHT22;50101;49.438;11.098;2023-01-30T00:18:49;17.80;53.10
38237;DHT22;50101;49.438;11.098;2023-01-30T00:21:16;17.80;53.10
38237;DHT22;50101;49.438;11.098;2023-01-30T00:23:43;17.80;53.10
38237;DHT22;50101;49.438;11.098;2023-01-30T00:26:10;17.80;53.10
38237;DHT22;50101;49.438;11.098;2023-01-30T00:28:37;17.80;53.00
38237;DHT22;50101;49.438;11.098;2023-01-30T00:31:05;17.80;53.00
38237;DHT22;50101;49.438;11.098;2023-01-30T00:33:32;17.70;53.00
38237;DHT22;50101;49.438;11.098;2023-01-30T00:36:00;17.80;53.00
38237;DHT22;50101;49.438;11.098;2023-01-30T00:38:28;17.80;52.90
38237;DHT22;50101;49.438;11.098;2023-01-30T00:40:55;17.80;53.00
38237;DHT22;50101;49.438;11.098;2023-01-30T00:43:21;17.80;52.90
38237;DHT22;50101;49.438;11.098;2023-01-30T00:46:20;17.80;53.00
38237;DHT22;50101;49.438;11.098;2023-01-30T00:49:06;17.80;52.80
38237;DHT22;50101;49.438;11.098;2023-01-30T00:51:33;17.70;52.80
38237;DHT22;50101;49.438;11.098;2023-01-30T00:54:00;17.70;52.80
38237;DHT22;50101;49.438;11.098;2023-01-30T00:56:26;17.70;52.80
38237;DHT22;50101;49.438;11.098;2023-01-30T00:58:53;17.80;52.80
38237;DHT22;50101;49.438;11.098;2023-01-30T01:01:20;17.70;52.80
38237;DHT22;50101;49.438;11.098;2023-01-30T01:03:46;17.70;52.80
38237;DHT22;50101;49.438;11.098;2023-01-30T01:06:13;17.70;52.20
38237;DHT22;50101;49.438;11.098;2023-01-30T01:08:40;17.70;52.80
38237;DHT22;50101;49.438;11.098;2023-01-30T01:11:06;17.70;52.80
38237;DHT22;50101;49.438;11.098;2023-01-30T01:13:33;17.70;52.80
38237;DHT22;50101;49.438;11.098;2023-01-30T01:16:00;17.70;52.70
38237;DHT22;50101;49.438;11.098;2023-01-30T01:18:26;17.70;52.70
38237;DHT22;50101;49.438;11.098;2023-01-30T01:20:53;17.70;52.70
38237;DHT22;50101;49.438;11.098;2023-01-30T01:23:20;17.70;52.60
38237;DHT22;50101;49.438;11.098;2023-01-30T01:25:46;17.70;52.70
38237;DHT22;50101;49.438;11.098;2023-01-30T01:28:13;17.70;52.70
38237;DHT22;50101;49.438;11.098;2023-01-30T01:30:40;17.70;52.70
38237;DHT22;50101;49.438;11.098;2023-01-30T01:33:06;17.70;52.70
38237;DHT22;50101;49.438;11.098;2023-01-30T01:35:33;17.70;52.70
38237;DHT22;50101;49.438;11.098;2023-01-30T01:38:00;17.70;52.60
38237;DHT22;50101;49.438;11.098;2023-01-30T01:40:26;17.70;52.50
38237;DHT22;50101;49.438;11.098;2023-01-30T01:43:20;17.70;52.60
38237;DHT22;50101;49.438;11.098;2023-01-30T01:45:50;17.70;52.00
38237;DHT22;50101;49.438;11.098;2023-01-30T01:48:27;17.70;52.50
38237;DHT22;50101;49.438;11.098;2023-01-30T01:51:01;17.70;53.10
38237;DHT22;50101;49.438;11.098;2023-01-30T01:53:36;17.70;52.50
38237;DHT22;50101;49.438;11.098;2023-01-30T01:56:05;17.70;52.50
38237;DHT22;50101;49.438;11.098;2023-01-30T01:59:00;17.70;52.50
38237;DHT22;50101;49.438;11.098;2023-01-30T02:01:29;17.60;52.40
38237;DHT22;50101;49.438;11.098;2023-01-30T02:03:59;17.70;52.40
38237;DHT22;50101;49.438;11.098;2023-01-30T02:06:28;17.60;52.30
38237;DHT22;50101;49.438;11.098;2023-01-30T02:09:01;17.60;52.30
38237;DHT22;50101;49.438;11.098;2023-01-30T02:11:41;17.60;52.30
38237;DHT22;50101;49.438;11.098;2023-01-30T02:14:11;17.60;52.30
38237;DHT22;50101;49.438;11.098;2023-01-30T02:16:39;17.60;52.30
38237;DHT22;50101;49.438;11.098;2023-01-30T02:19:23;17.60;52.30
38237;DHT22;50101;49.438;11.098;2023-01-30T02:25:13;17.60;52.30
38237;DHT22;50101;49.438;11.098;2023-01-30T02:38:37;17.60;52.20
38237;DHT22;50101;49.438;11.098;2023-01-30T02:41:33;17.60;52.20
38237;DHT22;50101;49.438;11.098;2023-01-30T02:44:03;17.60;52.20
38237;DHT22;50101;49.438;11.098;2023-01-30T02:49:21;17.60;52.20
38237;DHT22;50101;49.438;11.098;2023-01-30T02:51:50;17.60;52.20
38237;DHT22;50101;49.438;11.098;2023-01-30T02:54:17;17.50;52.10
38237;DHT22;50101;49.438;11.098;2023-01-30T02:56:49;17.60;52.10
38237;DHT22;50101;49.438;11.098;2023-01-30T02:59:31;17.60;52.10
38237;DHT22;50101;49.438;11.098;2023-01-30T03:05:16;17.50;52.10
38237;DHT22;50101;49.438;11.098;2023-01-30T03:10:41;17.50;52.10
38237;DHT22;50101;49.438;11.098;2023-01-30T03:13:16;17.50;52.00
38237;DHT22;50101;49.438;11.098;2023-01-30T03:15:50;17.50;52.00
38237;DHT22;50101;49.438;11.098;2023-01-30T03:18:19;17.50;52.00
38237;DHT22;50101;49.438;11.098;2023-01-30T03:20:46;17.50;52.10
38237;DHT22;50101;49.438;11.098;2023-01-30T03:23:13;17.50;52.00
38237;DHT22;50101;49.438;11.098;2023-01-30T03:25:42;17.50;51.50
38237;DHT22;50101;49.438;11.098;2023-01-30T03:28:10;17.50;52.00
38237;DHT22;50101;49.438;11.098;2023-01-30T03:30:38;17.50;52.00
38237;DHT22;50101;49.438;11.098;2023-01-30T03:33:04;17.50;52.10
38237;DHT22;50101;49.438;11.098;2023-01-30T03:35:31;17.50;52.10
38237;DHT22;50101;49.438;11.098;2023-01-30T03:37:58;17.50;52.10
38237;DHT22;50101;49.438;11.098;2023-01-30T03:40:25;17.50;52.10
38237;DHT22;50101;49.438;11.098;2023-01-30T03:42:52;17.50;52.10
38237;DHT22;50101;49.438;11.098;2023-01-30T03:45:18;17.50;52.00
38237;DHT22;50101;49.438;11.098;2023-01-30T03:47:45;17.50;52.00
38237;DHT22;50101;49.438;11.098;2023-01-30T03:50:12;17.50;52.00
38237;DHT22;50101;49.438;11.098;2023-01-30T03:52:39;17.50;52.00
38237;DHT22;50101;49.438;11.098;2023-01-30T03:55:06;17.50;52.00
38237;DHT22;50101;49.438;11.098;2023-01-30T03:57:33;17.40;51.90
38237;DHT22;50101;49.438;11.098;2023-01-30T03:59:59;17.50;52.10
38237;DHT22;50101;49.438;11.098;2023-01-30T04:02:26;17.40;52.00
38237;DHT22;50101;49.438;11.098;2023-01-30T04:04:52;17.40;52.00
38237;DHT22;50101;49.438;11.098;2023-01-30T04:07:19;17.40;52.00
38237;DHT22;50101;49.438;11.098;2023-01-30T04:09:46;17.40;52.10
38237;DHT22;50101;49.438;11.098;2023-01-30T04:12:12;17.40;52.10
38237;DHT22;50101;49.438;11.098;2023-01-30T04:14:39;17.40;52.10
38237;DHT22;50101;49.438;11.098;2023-01-30T04:17:06;17.40;52.20
38237;DHT22;50101;49.438;11.098;2023-01-30T04:19:33;17.40;52.10
38237;DHT22;50101;49.438;11.098;2023-01-30T04:21:59;17.40;52.10
38237;DHT22;50101;49.438;11.098;2023-01-30T04:24:26;17.40;52.10
38237;DHT22;50101;49.438;11.098;2023-01-30T04:26:52;17.40;52.10
38237;DHT22;50101;49.438;11.098;2023-01-30T04:29:19;17.40;52.10
38237;DHT22;50101;49.438;11.098;2023-01-30T04:31:46;17.40;52.10
38237;DHT22;50101;49.438;11.098;2023-01-30T04:34:12;17.40;52.10
38237;DHT22;50101;49.438;11.098;2023-01-30T04:36:39;17.40;52.10
38237;DHT22;50101;49.438;11.098;2023-01-30T04:39:06;17.30;52.00
38237;DHT22;50101;49.438;11.098;2023-01-30T04:41:33;17.40;52.10
38237;DHT22;50101;49.438;11.098;2023-01-30T04:43:59;17.40;52.00
38237;DHT22;50101;49.438;11.098;2023-01-30T04:46:26;17.40;52.00
38237;DHT22;50101;49.438;11.098;2023-01-30T04:48:53;17.40;52.00
38237;DHT22;50101;49.438;11.098;2023-01-30T04:51:19;17.40;52.00
38237;DHT22;50101;49.438;11.098;2023-01-30T04:53:46;17.40;52.10
38237;DHT22;50101;49.438;11.098;2023-01-30T04:56:12;17.40;51.50
38237;DHT22;50101;49.438;11.098;2023-01-30T04:58:39;17.40;52.10
38237;DHT22;50101;49.438;11.098;2023-01-30T05:01:21;17.40;52.00
38237;DHT22;50101;49.438;11.098;2023-01-30T05:03:52;17.40;52.00
38237;DHT22;50101;49.438;11.098;2023-01-30T05:06:19;17.30;51.90
38237;DHT22;50101;49.438;11.098;2023-01-30T05:08:50;17.40;52.00
38237;DHT22;50101;49.438;11.098;2023-01-30T05:11:18;17.30;51.90
38237;DHT22;50101;49.438;11.098;2023-01-30T05:13:45;17.30;51.50
38237;DHT22;50101;49.438;11.098;2023-01-30T05:16:13;17.30;52.00
38237;DHT22;50101;49.438;11.098;2023-01-30T05:18:40;17.30;52.00
38237;DHT22;50101;49.438;11.098;2023-01-30T05:21:11;17.30;52.10
38237;DHT22;50101;49.438;11.098;2023-01-30T05:23:38;17.30;52.20
38237;DHT22;50101;49.438;11.098;2023-01-30T05:26:05;17.30;52.20
38237;DHT22;50101;49.438;11.098;2023-01-30T05:28:32;17.30;52.10
38237;DHT22;50101;49.438;11.098;2023-01-30T05:31:10;17.30;52.10
38237;DHT22;50101;49.438;11.098;2023-01-30T05:33:38;17.30;52.20
38237;DHT22;50101;49.438;11.098;2023-01-30T05:36:05;17.30;52.20
38237;DHT22;50101;49.438;11.098;2023-01-30T05:38:32;17.30;52.20
38237;DHT22;50101;49.438;11.098;2023-01-30T05:41:06;17.30;52.10
38237;DHT22;50101;49.438;11.098;2023-01-30T05:43:34;17.30;52.20
38237;DHT22;50101;49.438;11.098;2023-01-30T05:46:03;17.30;52.30
38237;DHT22;50101;49.438;11.098;2023-01-30T05:48:30;17.30;52.20
38237;DHT22;50101;49.438;11.098;2023-01-30T05:50:58;17.30;52.20
38237;DHT22;50101;49.438;11.098;2023-01-30T05:53:32;17.30;51.70
38237;DHT22;50101;49.438;11.098;2023-01-30T05:56:04;17.30;52.20
38237;DHT22;50101;49.438;11.098;2023-01-30T05:58:31;17.30;52.20
38237;DHT22;50101;49.438;11.098;2023-01-30T06:01:07;17.30;52.20
38237;DHT22;50101;49.438;11.098;2023-01-30T06:03:35;17.30;52.20
38237;DHT22;50101;49.438;11.098;2023-01-30T06:06:03;17.30;52.30
38237;DHT22;50101;49.438;11.098;2023-01-30T06:08:30;17.30;52.30
38237;DHT22;50101;49.438;11.098;2023-01-30T06:11:01;17.30;52.30
38237;DHT22;50101;49.438;11.098;2023-01-30T06:13:28;17.30;52.40
38237;DHT22;50101;49.438;11.098;2023-01-30T06:15:55;17.30;52.30
38237;DHT22;50101;49.438;11.098;2023-01-30T06:18:22;17.40;52.40
38237;DHT22;50101;49.438;11.098;2023-01-30T06:20:49;17.40;52.40
38237;DHT22;50101;49.438;11.098;2023-01-30T06:23:17;17.40;52.50
38237;DHT22;50101;49.438;11.098;2023-01-30T06:25:45;17.40;51.90
38237;DHT22;50101;49.438;11.098;2023-01-30T06:28:13;17.40;52.40
38237;DHT22;50101;49.438;11.098;2023-01-30T06:30:40;17.40;52.40
38237;DHT22;50101;49.438;11.098;2023-01-30T06:33:07;17.40;52.40
38237;DHT22;50101;49.438;11.098;2023-01-30T06:35:36;17.40;52.50
38237;DHT22;50101;49.438;11.098;2023-01-30T06:38:03;17.40;52.40
38237;DHT22;50101;49.438;11.098;2023-01-30T06:40:30;17.40;52.40
38237;DHT22;50101;49.438;11.098;2023-01-30T06:42:57;17.40;52.30
38237;DHT22;50101;49.438;11.098;2023-01-30T06:45:24;17.40;52.30
38237;DHT22;50101;49.438;11.098;2023-01-30T06:47:52;17.40;52.30
38237;DHT22;50101;49.438;11.098;2023-01-30T06:50:22;17.50;52.50
38237;DHT22;50101;49.438;11.098;2023-01-30T06:52:49;17.50;52.50
38237;DHT22;50101;49.438;11.098;2023-01-30T06:55:19;17.40;52.40
38237;DHT22;50101;49.438;11.098;2023-01-30T06:57:47;17.50;52.60
38237;DHT22;50101;49.438;11.098;2023-01-30T07:00:17;17.50;52.60
38237;DHT22;50101;49.438;11.098;2023-01-30T07:02:45;17.50;52.60
38237;DHT22;50101;49.438;11.098;2023-01-30T07:05:12;17.50;52.50
38237;DHT22;50101;49.438;11.098;2023-01-30T07:07:38;17.50;52.50
38237;DHT22;50101;49.438;11.098;2023-01-30T07:10:07;17.50;52.50
38237;DHT22;50101;49.438;11.098;2023-01-30T07:12:34;17.50;52.60
38237;DHT22;50101;49.438;11.098;2023-01-30T07:15:03;17.50;52.60
38237;DHT22;50101;49.438;11.098;2023-01-30T07:17:30;17.50;52.60
38237;DHT22;50101;49.438;11.098;2023-01-30T07:19:57;17.50;52.60
38237;DHT22;50101;49.438;11.098;2023-01-30T07:22:24;17.50;52.60
38237;DHT22;50101;49.438;11.098;2023-01-30T07:24:50;17.60;52.70
38237;DHT22;50101;49.438;11.098;2023-01-30T07:27:17;17.60;52.60
38237;DHT22;50101;49.438;11.098;2023-01-30T07:29:44;17.60;53.30
38237;DHT22;50101;49.438;11.098;2023-01-30T07:32:15;17.60;52.70
38237;DHT22;50101;49.438;11.098;2023-01-30T07:34:43;17.60;52.70
38237;DHT22;50101;49.438;11.098;2023-01-30T07:37:10;17.50;52.70
38237;DHT22;50101;49.438;11.098;2023-01-30T07:39:37;17.60;52.70
38237;DHT22;50101;49.438;11.098;2023-01-30T07:42:04;17.60;52.80
38237;DHT22;50101;49.438;11.098;2023-01-30T07:44:31;17.60;52.80
38237;DHT22;50101;49.438;11.098;2023-01-30T07:46:59;17.60;52.90
38237;DHT22;50101;49.438;11.098;2023-01-30T07:49:26;17.60;52.80
38237;DHT22;50101;49.438;11.098;2023-01-30T07:51:53;17.60;52.90
38237;DHT22;50101;49.438;11.098;2023-01-30T07:54:19;17.60;52.90
38237;DHT22;50101;49.438;11.098;2023-01-30T07:56:46;17.60;52.90
38237;DHT22;50101;49.438;11.098;2023-01-30T07:59:13;17.60;52.90
38237;DHT22;50101;49.438;11.098;2023-01-30T08:01:39;17.60;52.80
38237;DHT22;50101;49.438;11.098;2023-01-30T08:04:06;17.60;52.80
38237;DHT22;50101;49.438;11.098;2023-01-30T08:06:32;17.60;52.90
38237;DHT22;50101;49.438;11.098;2023-01-30T08:09:05;17.60;52.90
38237;DHT22;50101;49.438;11.098;2023-01-30T08:11:32;17.60;52.90
38237;DHT22;50101;49.438;11.098;2023-01-30T08:13:59;17.60;52.90
38237;DHT22;50101;49.438;11.098;2023-01-30T08:16:26;17.60;52.80
38237;DHT22;50101;49.438;11.098;2023-01-30T08:18:52;17.60;52.90
38237;DHT22;50101;49.438;11.098;2023-01-30T08:21:19;17.60;52.90
38237;DHT22;50101;49.438;11.098;2023-01-30T08:26:13;17.60;52.40
38237;DHT22;50101;49.438;11.098;2023-01-30T08:28:40;17.70;53.00
38237;DHT22;50101;49.438;11.098;2023-01-30T08:31:14;17.60;52.90
38237;DHT22;50101;49.438;11.098;2023-01-30T08:33:41;17.70;53.00
38237;DHT22;50101;49.438;11.098;2023-01-30T08:36:08;17.70;53.00
38237;DHT22;50101;49.438;11.098;2023-01-30T08:38:35;17.70;53.00
38237;DHT22;50101;49.438;11.098;2023-01-30T08:41:04;17.70;53.00
38237;DHT22;50101;49.438;11.098;2023-01-30T08:43:32;17.70;53.00
38237;DHT22;50101;49.438;11.098;2023-01-30T08:45:59;17.70;53.00
38237;DHT22;50101;49.438;11.098;2023-01-30T08:48:26;17.70;53.00
38237;DHT22;50101;49.438;11.098;2023-01-30T08:50:57;17.70;53.00
38237;DHT22;50101;49.438;11.098;2023-01-30T08:53:24;17.70;53.00
38237;DHT22;50101;49.438;11.098;2023-01-30T08:55:51;17.70;53.00
38237;DHT22;50101;49.438;11.098;2023-01-30T08:58:19;17.70;53.00
38237;DHT22;50101;49.438;11.098;2023-01-30T09:00:46;17.70;53.00
38237;DHT22;50101;49.438;11.098;2023-01-30T09:03:14;17.70;53.00
38237;DHT22;50101;49.438;11.098;2023-01-30T09:05:41;17.70;53.00
38237;DHT22;50101;49.438;11.098;2023-01-30T09:08:08;17.70;53.00
38237;DHT22;50101;49.438;11.098;2023-01-30T09:10:35;17.70;53.00
38237;DHT22;50101;49.438;11.098;2023-01-30T09:13:02;17.70;53.00
38237;DHT22;50101;49.438;11.098;2023-01-30T09:15:32;17.70;53.00
38237;DHT22;50101;49.438;11.098;2023-01-30T09:17:59;17.70;53.00
38237;DHT22;50101;49.438;11.098;2023-01-30T09:20:26;17.70;53.10
38237;DHT22;50101;49.438;11.098;2023-01-30T09:22:53;17.70;53.10
38237;DHT22;50101;49.438;11.098;2023-01-30T09:25:19;17.70;52.60
38237;DHT22;50101;49.438;11.098;2023-01-30T09:27:49;17.70;53.10
38237;DHT22;50101;49.438;11.098;2023-01-30T09:30:17;17.70;53.10
38237;DHT22;50101;49.438;11.098;2023-01-30T09:32:44;17.70;53.10
38237;DHT22;50101;49.438;11.098;2023-01-30T09:35:11;17.70;53.20
38237;DHT22;50101;49.438;11.098;2023-01-30T09:37:39;17.70;53.10
38237;DHT22;50101;49.438;11.098;2023-01-30T09:40:14;17.70;53.20
38237;DHT22;50101;49.438;11.098;2023-01-30T09:51:42;17.70;53.30
38237;DHT22;50101;49.438;11.098;2023-01-30T09:54:22;17.70;53.40
38237;DHT22;50101;49.438;11.098;2023-01-30T09:57:28;17.70;53.30
38237;DHT22;50101;49.438;11.098;2023-01-30T10:00:03;17.70;53.30
38237;DHT22;50101;49.438;11.098;2023-01-30T10:05:18;17.70;53.30
38237;DHT22;50101;49.438;11.098;2023-01-30T10:10:39;17.70;53.30
38237;DHT22;50101;49.438;11.098;2023-01-30T10:13:24;17.70;53.50
38237;DHT22;50101;49.438;11.098;2023-01-30T10:16:05;17.70;53.00
38237;DHT22;50101;49.438;11.098;2023-01-30T10:21:24;17.80;53.50
38237;DHT22;50101;49.438;11.098;2023-01-30T10:24:11;17.80;53.50
38237;DHT22;50101;49.438;11.098;2023-01-30T10:26:41;17.70;53.40
38237;DHT22;50101;49.438;11.098;2023-01-30T10:29:28;17.70;53.40
38237;DHT22;50101;49.438;11.098;2023-01-30T10:32:09;17.60;53.50
38237;DHT22;50101;49.438;11.098;2023-01-30T10:34:40;17.60;53.60
38237;DHT22;50101;49.438;11.098;2023-01-30T10:37:14;17.70;53.70
38237;DHT22;50101;49.438;11.098;2023-01-30T10:43:16;17.70;53.90
38237;DHT22;50101;49.438;11.098;2023-01-30T10:45:59;17.80;54.10
38237;DHT22;50101;49.438;11.098;2023-01-30T10:48:54;17.70;54.00
38237;DHT22;50101;49.438;11.098;2023-01-30T10:51:32;17.70;54.10
38237;DHT22;50101;49.438;11.098;2023-01-30T10:54:14;17.70;54.00
38237;DHT22;50101;49.438;11.098;2023-01-30T11:05:21;17.70;54.00
38237;DHT22;50101;49.438;11.098;2023-01-30T11:07:49;17.80;54.00
38237;DHT22;50101;49.438;11.098;2023-01-30T11:10:24;17.70;53.90
38237;DHT22;50101;49.438;11.098;2023-01-30T11:13:12;17.70;53.80
38237;DHT22;50101;49.438;11.098;2023-01-30T11:15:40;17.60;53.80
38237;DHT22;50101;49.438;11.098;2023-01-30T11:18:08;17.70;53.80
38237;DHT22;50101;49.438;11.098;2023-01-30T11:21:04;17.70;53.80
38237;DHT22;50101;49.438;11.098;2023-01-30T11:23:39;17.70;53.70
38237;DHT22;50101;49.438;11.098;2023-01-30T11:26:07;17.70;53.60
38237;DHT22;50101;49.438;11.098;2023-01-30T11:28:41;17.80;53.60
38237;DHT22;50101;49.438;11.098;2023-01-30T11:31:20;17.80;53.60
38237;DHT22;50101;49.438;11.098;2023-01-30T11:34:12;17.80;53.50
38237;DHT22;50101;49.438;11.098;2023-01-30T11:36:40;17.80;53.50
38237;DHT22;50101;49.438;11.098;2023-01-30T11:39:27;17.80;53.50
38237;DHT22;50101;49.438;11.098;2023-01-30T11:44:28;17.80;53.60
38237;DHT22;50101;49.438;11.098;2023-01-30T11:47:05;17.70;53.50
38237;DHT22;50101;49.438;11.098;2023-01-30T11:49:40;17.80;53.60
38237;DHT22;50101;49.438;11.098;2023-01-30T11:52:30;17.70;53.60
38237;DHT22;50101;49.438;11.098;2023-01-30T11:55:01;17.70;53.60
38237;DHT22;50101;49.438;11.098;2023-01-30T11:57:45;17.70;53.70
38237;DHT22;50101;49.438;11.098;2023-01-30T12:00:16;17.70;53.70
38237;DHT22;50101;49.438;11.098;2023-01-30T12:02:45;17.70;53.70
38237;DHT22;50101;49.438;11.098;2023-01-30T12:05:32;17.80;53.80
38237;DHT22;50101;49.438;11.098;2023-01-30T12:11:00;17.80;53.90
38237;DHT22;50101;49.438;11.098;2023-01-30T12:13:32;17.80;53.90
38237;DHT22;50101;49.438;11.098;2023-01-30T12:16:25;17.70;53.90
38237;DHT22;50101;49.438;11.098;2023-01-30T12:19:06;17.70;54.00
38237;DHT22;50101;49.438;11.098;2023-01-30T12:21:48;17.80;54.00
38237;DHT22;50101;49.438;11.098;2023-01-30T12:24:35;17.80;54.10
38237;DHT22;50101;49.438;11.098;2023-01-30T12:27:09;17.70;54.00
38237;DHT22;50101;49.438;11.098;2023-01-30T12:32:32;17.70;54.00
38237;DHT22;50101;49.438;11.098;2023-01-30T12:35:00;17.70;54.00
38237;DHT22;50101;49.438;11.098;2023-01-30T12:45:39;17.70;54.00
38237;DHT22;50101;49.438;11.098;2023-01-30T12:53:52;17.70;54.10
38237;DHT22;50101;49.438;11.098;2023-01-30T12:56:58;17.70;54.00
38237;DHT22;50101;49.438;11.098;2023-01-30T12:59:42;17.70;54.70
38237;DHT22;50101;49.438;11.098;2023-01-30T13:10:49;17.80;54.60
38237;DHT22;50101;49.438;11.098;2023-01-30T13:13:22;17.80;54.60
38237;DHT22;50101;49.438;11.098;2023-01-30T13:16:03;17.80;54.60
38237;DHT22;50101;49.438;11.098;2023-01-30T13:21:15;17.90;54.70
38237;DHT22;50101;49.438;11.098;2023-01-30T13:24:13;17.90;54.60
38237;DHT22;50101;49.438;11.098;2023-01-30T13:26:43;17.80;54.60
38237;DHT22;50101;49.438;11.098;2023-01-30T13:29:29;17.90;54.70
38237;DHT22;50101;49.438;11.098;2023-01-30T13:31:59;17.80;54.60
38237;DHT22;50101;49.438;11.098;2023-01-30T13:34:43;17.90;54.60
38237;DHT22;50101;49.438;11.098;2023-01-30T13:37:12;17.90;54.50
38237;DHT22;50101;49.438;11.098;2023-01-30T13:39:43;17.90;54.50
38237;DHT22;50101;49.438;11.098;2023-01-30T13:45:21;18.00;54.50
38237;DHT22;50101;49.438;11.098;2023-01-30T13:47:55;18.00;55.00
38237;DHT22;50101;49.438;11.098;2023-01-30T13:53:33;17.90;54.40
38237;DHT22;50101;49.438;11.098;2023-01-30T13:56:35;18.00;54.50
38237;DHT22;50101;49.438;11.098;2023-01-30T14:02:07;18.00;54.50
38237;DHT22;50101;49.438;11.098;2023-01-30T14:07:37;17.50;53.60
38237;DHT22;50101;49.438;11.098;2023-01-30T14:12:41;17.90;54.50
38237;DHT22;50101;49.438;11.098;2023-01-30T14:18:01;17.90;54.40
38237;DHT22;50101;49.438;11.098;2023-01-30T14:20:36;17.90;54.40
38237;DHT22;50101;49.438;11.098;2023-01-30T14:25:48;17.90;54.40
38237;DHT22;50101;49.438;11.098;2023-01-30T14:31:43;17.90;54.40
38237;DHT22;50101;49.438;11.098;2023-01-30T14:34:01;17.90;54.50
38237;DHT22;50101;49.438;11.098;2023-01-30T14:36:33;17.80;54.40
38237;DHT22;50101;49.438;11.098;2023-01-30T14:39:52;17.80;54.40
38237;DHT22;50101;49.438;11.098;2023-01-30T14:42:19;17.80;54.40
38237;DHT22;50101;49.438;11.098;2023-01-30T14:45:13;17.90;54.50
38237;DHT22;50101;49.438;11.098;2023-01-30T14:47:41;17.80;54.40
38237;DHT22;50101;49.438;11.098;2023-01-30T14:50:19;17.90;54.50
38237;DHT22;50101;49.438;11.098;2023-01-30T14:52:47;17.90;54.50
38237;DHT22;50101;49.438;11.098;2023-01-30T14:55:18;17.90;54.50
38237;DHT22;50101;49.438;11.098;2023-01-30T14:57:54;17.90;54.50
38237;DHT22;50101;49.438;11.098;2023-01-30T15:00:29;17.90;54.50
38237;DHT22;50101;49.438;11.098;2023-01-30T15:03:15;17.90;54.50
38237;DHT22;50101;49.438;11.098;2023-01-30T15:05:44;17.90;54.50
38237;DHT22;50101;49.438;11.098;2023-01-30T15:08:23;17.90;54.50
38237;DHT22;50101;49.438;11.098;2023-01-30T15:11:29;17.90;54.50
38237;DHT22;50101;49.438;11.098;2023-01-30T15:14:05;17.90;54.50
38237;DHT22;50101;49.438;11.098;2023-01-30T15:22:30;18.00;54.60
38237;DHT22;50101;49.438;11.098;2023-01-30T15:25:26;18.00;54.60
38237;DHT22;50101;49.438;11.098;2023-01-30T15:28:01;18.00;54.60
38237;DHT22;50101;49.438;11.098;2023-01-30T15:33:16;18.00;54.50
38237;DHT22;50101;49.438;11.098;2023-01-30T15:35:55;18.00;54.40
38237;DHT22;50101;49.438;11.098;2023-01-30T15:40:55;18.00;54.40
38237;DHT22;50101;49.438;11.098;2023-01-30T15:52:18;18.00;54.30
38237;DHT22;50101;49.438;11.098;2023-01-30T15:54:52;18.00;54.30
38237;DHT22;50101;49.438;11.098;2023-01-30T15:57:25;18.00;54.30
38237;DHT22;50101;49.438;11.098;2023-01-30T15:59:55;18.10;54.40
38237;DHT22;50101;49.438;11.098;2023-01-30T16:02:31;18.10;54.40
38237;DHT22;50101;49.438;11.098;2023-01-30T16:05:13;18.00;54.30
38237;DHT22;50101;49.438;11.098;2023-01-30T16:07:42;18.00;54.30
38237;DHT22;50101;49.438;11.098;2023-01-30T16:10:15;18.10;54.40
38237;DHT22;50101;49.438;11.098;2023-01-30T16:12:42;18.00;54.30
38237;DHT22;50101;49.438;11.098;2023-01-30T16:15:23;18.10;53.90
38237;DHT22;50101;49.438;11.098;2023-01-30T16:18:00;18.10;54.40
38237;DHT22;50101;49.438;11.098;2023-01-30T16:20:42;18.10;54.30
38237;DHT22;50101;49.438;11.098;2023-01-30T16:23:37;18.00;54.00
38237;DHT22;50101;49.438;11.098;2023-01-30T16:26:14;18.10;54.20
38237;DHT22;50101;49.438;11.098;2023-01-30T16:28:48;18.10;54.10
38237;DHT22;50101;49.438;11.098;2023-01-30T16:31:16;18.10;54.20
38237;DHT22;50101;49.438;11.098;2023-01-30T16:33:50;18.10;54.10
38237;DHT22;50101;49.438;11.098;2023-01-30T16:38:48;18.10;54.00
38237;DHT22;50101;49.438;11.098;2023-01-30T16:41:35;18.10;54.00
38237;DHT22;50101;49.438;11.098;2023-01-30T16:52:14;18.10;53.90
38237;DHT22;50101;49.438;11.098;2023-01-30T16:54:54;18.10;53.80
38237;DHT22;50101;49.438;11.098;2023-01-30T16:59:48;18.10;53.80
38237;DHT22;50101;49.438;11.098;2023-01-30T17:02:27;18.10;53.80
38237;DHT22;50101;49.438;11.098;2023-01-30T17:05:14;18.20;53.90
38237;DHT22;50101;49.438;11.098;2023-01-30T17:07:41;18.20;54.50
38237;DHT22;50101;49.438;11.098;2023-01-30T17:12:54;18.20;53.80
38237;DHT22;50101;49.438;11.098;2023-01-30T17:17:47;18.20;53.60
38237;DHT22;50101;49.438;11.098;2023-01-30T17:20:15;18.20;53.60
38237;DHT22;50101;49.438;11.098;2023-01-30T17:22:44;18.20;53.60
38237;DHT22;50101;49.438;11.098;2023-01-30T17:27:44;18.20;53.50
38237;DHT22;50101;49.438;11.098;2023-01-30T17:30:15;18.20;53.50
38237;DHT22;50101;49.438;11.098;2023-01-30T17:32:43;18.20;53.40
38237;DHT22;50101;49.438;11.098;2023-01-30T17:35:12;18.30;53.50
38237;DHT22;50101;49.438;11.098;2023-01-30T17:37:39;18.20;53.40
38237;DHT22;50101;49.438;11.098;2023-01-30T17:40:32;18.20;53.40
38237;DHT22;50101;49.438;11.098;2023-01-30T17:42:59;18.20;53.40
38237;DHT22;50101;49.438;11.098;2023-01-30T17:45:26;18.30;53.50
38237;DHT22;50101;49.438;11.098;2023-01-30T17:47:54;18.30;53.40
38237;DHT22;50101;49.438;11.098;2023-01-30T17:50:20;18.30;53.40
38237;DHT22;50101;49.438;11.098;2023-01-30T17:52:47;18.40;53.40
38237;DHT22;50101;49.438;11.098;2023-01-30T17:55:14;18.30;52.80
38237;DHT22;50101;49.438;11.098;2023-01-30T17:57:42;18.30;53.30
38237;DHT22;50101;49.438;11.098;2023-01-30T18:00:15;18.40;53.30
38237;DHT22;50101;49.438;11.098;2023-01-30T18:02:42;18.40;53.30
38237;DHT22;50101;49.438;11.098;2023-01-30T18:05:09;18.40;53.00
38237;DHT22;50101;49.438;11.098;2023-01-30T18:07:36;18.40;53.40
38237;DHT22;50101;49.438;11.098;2023-01-30T18:10:04;18.50;53.30
38237;DHT22;50101;49.438;11.098;2023-01-30T18:12:30;18.50;53.50
38237;DHT22;50101;49.438;11.098;2023-01-30T18:14:57;18.60;53.60